Terminal Aerodrome Forecast
Issued by NWS

Home | Current Version | Previous Version | Text Only | Print | Product List | Glossary On
Versions: 1 2 3 4 5 6 7 8 9 10 11 12 13 14 15 16 17 18 19 20 21
595
FTUS43 KMQT 102321
TAFSAW
TAF
KSAW 102321Z 1100/1124 32007KT P6SM VCSH BKN025
     FM110200 32007KT P6SM VCSH BKN040
     FM110400 29006KT P6SM SCT100
     FM111200 21005KT P6SM OVC045
     FM111300 21005KT 3SM -SHSN OVC030
     FM111500 20005KT 1 1/2SM -SHSN OVC010
     FM111800 22005KT P6SM OVC010
     FM112000 27004KT P6SM OVC020
     FM112300 32008KT P6SM BKN020=

USA.gov is the U.S. government's official web portal to all federal, state and local government web resources and services.